createdAt,value
2022-09-27T00:01:55.639Z,993.53
2022-09-27T00:16:55.627Z,993.45
2022-09-27T00:31:55.747Z,993.38
2022-09-27T00:46:55.840Z,993.24
2022-09-27T01:01:56.005Z,993.03
2022-09-27T01:16:56.062Z,992.81
2022-09-27T01:31:56.139Z,992.59
2022-09-27T01:46:56.250Z,992.42
2022-09-27T02:01:56.422Z,992.30
2022-09-27T02:16:56.445Z,992.07
2022-09-27T02:31:56.570Z,991.91
2022-09-27T02:46:56.625Z,991.83
2022-09-27T03:01:56.818Z,991.76
2022-09-27T03:16:58.197Z,991.65
2022-09-27T03:31:58.308Z,991.57
2022-09-27T03:46:58.412Z,991.40
2022-09-27T04:01:58.554Z,991.29
2022-09-27T04:16:58.669Z,991.17
2022-09-27T04:31:59.282Z,991.07
2022-09-27T04:46:59.928Z,991.13
2022-09-27T05:02:00.099Z,991.13
2022-09-27T05:17:00.233Z,991.03
2022-09-27T05:32:00.162Z,991.11
2022-09-27T05:47:00.306Z,991.07
2022-09-27T06:02:00.438Z,991.04
2022-09-27T06:17:00.656Z,990.95
2022-09-27T06:32:00.656Z,990.99
2022-09-27T06:47:00.777Z,991.08
2022-09-27T07:02:00.950Z,991.13
2022-09-27T07:17:00.928Z,991.10
2022-09-27T07:32:01.096Z,991.16
2022-09-27T07:47:01.158Z,991.14
2022-09-27T08:02:01.400Z,991.18
2022-09-27T08:17:01.411Z,991.25
2022-09-27T08:32:01.573Z,991.27
2022-09-27T08:47:01.625Z,991.29
2022-09-27T09:02:01.811Z,991.35
2022-09-27T09:17:01.802Z,991.34
2022-09-27T09:32:02.022Z,991.29
2022-09-27T09:47:02.013Z,991.21
2022-09-27T10:02:02.144Z,991.36
2022-09-27T10:17:02.249Z,991.15
2022-09-27T10:32:02.354Z,991.00
2022-09-27T10:47:02.447Z,991.11
2022-09-27T11:02:02.583Z,991.09
2022-09-27T11:17:02.625Z,991.04
2022-09-27T11:32:02.747Z,991.08
2022-09-27T11:47:02.977Z,991.46
2022-09-27T12:02:03.024Z,991.58
2022-09-27T12:17:03.087Z,991.52
2022-09-27T12:32:03.243Z,991.61
2022-09-27T12:47:03.320Z,991.73
2022-09-27T13:02:03.462Z,991.63
2022-09-27T13:17:03.483Z,991.76
2022-09-27T13:32:03.636Z,991.79
2022-09-27T13:47:03.755Z,991.97
2022-09-27T14:02:03.955Z,992.00
2022-09-27T14:17:09.156Z,992.16
2022-09-27T14:32:09.338Z,992.26
2022-09-27T14:47:09.427Z,992.28
2022-09-27T15:02:09.547Z,992.36
2022-09-27T15:17:10.994Z,992.59
2022-09-27T15:32:11.121Z,992.78
2022-09-27T15:47:11.104Z,992.93
2022-09-27T16:02:11.342Z,992.95
2022-09-27T16:17:11.336Z,993.04
2022-09-27T16:32:11.440Z,993.36
2022-09-27T16:47:11.520Z,993.41
2022-09-27T17:02:11.674Z,993.40
2022-09-27T17:17:11.735Z,993.28
2022-09-27T17:32:11.879Z,993.53
2022-09-27T17:47:11.940Z,993.64
2022-09-27T18:02:13.475Z,993.73
2022-09-27T18:17:13.519Z,993.77
2022-09-27T18:32:13.602Z,993.95
2022-09-27T18:47:13.785Z,993.98
2022-09-27T19:02:13.877Z,994.07
2022-09-27T19:17:13.899Z,994.11
2022-09-27T19:32:14.189Z,994.18
2022-09-27T19:47:14.233Z,994.20
2022-09-27T20:02:14.580Z,994.21
2022-09-27T20:17:14.428Z,994.16
2022-09-27T20:32:29.349Z,994.19
2022-09-27T20:47:20.145Z,994.17
2022-09-27T21:02:21.463Z,994.22
2022-09-27T21:17:21.619Z,994.26
2022-09-27T21:32:21.638Z,994.35
2022-09-27T21:47:22.405Z,994.35
2022-09-27T22:02:22.552Z,994.40
2022-09-27T22:17:22.535Z,994.39
2022-09-27T22:32:22.593Z,994.42
2022-09-27T22:47:22.766Z,994.46
2022-09-27T23:02:22.800Z,994.37
2022-09-27T23:17:22.907Z,994.38
2022-09-27T23:32:23.003Z,994.32
2022-09-27T23:47:23.221Z,994.33
